Strona główna
METAR-TAF:

METAR-TAF

Lotnisko :

Port lotniczy Jakuck

Jakuck, Rosja

Szerokość geograficzna: 62-01N, Długość geograficzna: 129-43E, wysokość: 103 m

Aktualna obserwacja pogody

Raport powstał 20 minut temu, godzina 19:30 UTC
Wiatr 2 kt od północny zachód
Temperatura 16°C
Wilgotność 77%
Ciśnienie 1002 hPa
Widzialność 10 km lub więcej
Mało chmury na wysokości 5000 ft, Cumulonimbus.

METAR: UEEE 251930Z 31001MPS 9999 FEW050CB 16/12 Q1002 R23L/09//60 NOSIG RMK QFE743

czas: 04:50 (19:50 UTC)

Prognoza

Raport powstał 2 godziny i 50 minut temu, godzina 17:00 UTC
Prognoza ważna od 25 godzina 18 UTC do 26 godzina 24 UTC
Wiatr 6 kt od północ
Widzialność 10 km lub więcej
Rozproszone chmury na wysokości 3300 ft, Cumulonimbus.

TAF: UEEE 251700Z 2518/2624 36003MPS 9999 SCT033CB TX27/2607Z TN14/2519Z

Obserwacja i prognoza pogody dla ponad 4000 lotnisk (raport METAR i TAF).

Dostępne stacje oznaczono żółtymi i czerwonymi punktami na mapie.

Najedź kursorem aby zobaczyć nazwę stacji.

Kliknij aby zobaczyć obserwacje i prognozy pogody.

Aby zmienić mapę: kliknij na zielony przycisk z czarnym krzyżykiem, aby powiększyć; na zielony przycisk z myślnikiem, aby pomniejszyć; na zielone strzałki, aby przejść do map sąsiednich.


METAR-TAF: